createdAt,value
2018-05-03T00:01:47.090Z,13.85
2018-05-03T00:04:12.816Z,13.82
2018-05-03T00:06:38.534Z,13.84
2018-05-03T00:09:04.126Z,13.78
2018-05-03T00:11:29.712Z,13.74
2018-05-03T00:13:55.477Z,13.67
2018-05-03T00:16:21.090Z,13.69
2018-05-03T00:18:46.859Z,13.69
2018-05-03T00:21:12.629Z,13.67
2018-05-03T00:23:38.230Z,13.71
2018-05-03T00:26:03.771Z,13.67
2018-05-03T00:28:30.568Z,13.62
2018-05-03T00:30:56.112Z,13.87
2018-05-03T00:33:21.668Z,13.67
2018-05-03T00:35:47.470Z,13.50
2018-05-03T00:38:13.259Z,13.37
2018-05-03T00:40:38.798Z,13.36
2018-05-03T00:43:04.649Z,13.41
2018-05-03T00:45:30.206Z,13.51
2018-05-03T00:47:56.086Z,13.51
2018-05-03T00:50:21.863Z,13.51
2018-05-03T00:52:47.436Z,13.29
2018-05-03T00:55:12.988Z,13.29
2018-05-03T00:57:38.761Z,13.38
2018-05-03T01:00:04.329Z,13.76
2018-05-03T01:02:30.135Z,13.49
2018-05-03T01:04:55.809Z,13.73
2018-05-03T01:07:21.340Z,13.36
2018-05-03T01:09:46.894Z,13.33
2018-05-03T01:12:13.010Z,13.31
2018-05-03T01:14:38.582Z,13.54
2018-05-03T01:17:04.123Z,13.78
2018-05-03T01:19:29.849Z,13.60
2018-05-03T01:21:55.433Z,13.41
2018-05-03T01:24:21.195Z,13.40
2018-05-03T01:26:47.197Z,13.41
2018-05-03T01:29:12.755Z,13.41
2018-05-03T01:31:38.312Z,13.37
2018-05-03T01:34:04.123Z,13.39
2018-05-03T01:36:32.862Z,13.38
2018-05-03T01:38:58.427Z,13.37
2018-05-03T01:41:24.234Z,13.43
2018-05-03T01:43:49.840Z,13.65
2018-05-03T01:46:15.436Z,13.55
2018-05-03T01:48:41.333Z,13.56
2018-05-03T01:51:06.929Z,13.63
2018-05-03T01:53:32.544Z,13.48
2018-05-03T01:55:58.605Z,13.41
2018-05-03T01:58:24.224Z,13.46
2018-05-03T02:00:49.850Z,13.40
2018-05-03T02:03:16.635Z,13.64
2018-05-03T02:05:42.212Z,13.47
2018-05-03T02:08:07.777Z,13.31
2018-05-03T02:10:33.849Z,13.40
2018-05-03T02:12:59.500Z,13.41
2018-05-03T02:15:25.098Z,13.41
2018-05-03T02:17:50.860Z,13.58
2018-05-03T02:20:16.455Z,13.55
2018-05-03T02:22:42.359Z,13.78
2018-05-03T02:25:08.156Z,13.69
2018-05-03T02:27:33.729Z,13.82
2018-05-03T02:29:59.300Z,13.67
2018-05-03T02:32:25.103Z,13.68
2018-05-03T02:34:50.722Z,13.49
2018-05-03T02:37:16.527Z,13.44
2018-05-03T02:39:42.388Z,13.32
2018-05-03T02:42:07.967Z,13.26
2018-05-03T02:44:33.514Z,13.25
2018-05-03T02:46:59.379Z,13.24
2018-05-03T02:49:24.953Z,13.29
2018-05-03T02:51:50.523Z,13.33
2018-05-03T02:54:16.339Z,13.32
2018-05-03T02:56:41.932Z,13.33
2018-05-03T02:59:45.590Z,13.41
2018-05-03T03:02:30.419Z,13.41
2018-05-03T03:05:52.415Z,13.45
2018-05-03T03:08:39.727Z,13.32
2018-05-03T03:11:49.199Z,13.26
2018-05-03T03:14:34.189Z,13.22
2018-05-03T03:17:56.614Z,13.21
2018-05-03T03:20:37.613Z,13.18
2018-05-03T03:23:59.866Z,13.24
2018-05-03T03:26:53.417Z,13.22
2018-05-03T03:29:56.626Z,13.18
2018-05-03T03:33:01.369Z,13.44
2018-05-03T03:35:26.942Z,13.55
2018-05-03T03:38:33.821Z,13.16
2018-05-03T03:41:36.894Z,13.10
2018-05-03T03:44:40.547Z,13.06
2018-05-03T03:47:06.114Z,12.97
2018-05-03T03:49:31.685Z,13.01
2018-05-03T03:51:57.912Z,12.91
2018-05-03T03:54:24.244Z,12.89
2018-05-03T03:56:49.876Z,12.98
2018-05-03T03:59:15.924Z,12.77
2018-05-03T04:01:41.510Z,12.70
2018-05-03T04:04:07.221Z,12.71
2018-05-03T04:06:32.846Z,12.80
2018-05-03T04:08:58.606Z,12.78
2018-05-03T04:11:24.344Z,12.70
2018-05-03T04:13:49.955Z,12.67
2018-05-03T04:16:15.599Z,12.70
2018-05-03T04:19:19.866Z,12.90
2018-05-03T04:22:23.151Z,12.77
2018-05-03T04:25:26.590Z,12.67
2018-05-03T04:27:52.157Z,12.58
2018-05-03T04:30:17.809Z,12.59
2018-05-03T04:32:44.211Z,12.63
2018-05-03T04:35:10.648Z,12.66
2018-05-03T04:37:36.217Z,12.74
2018-05-03T04:40:02.281Z,12.72
2018-05-03T04:42:27.923Z,12.80
2018-05-03T04:44:54.030Z,12.76
2018-05-03T04:47:19.601Z,12.74
2018-05-03T04:49:45.680Z,12.81
2018-05-03T04:52:11.244Z,13.04
2018-05-03T04:54:37.113Z,12.97
2018-05-03T04:57:02.988Z,12.82
2018-05-03T04:59:28.549Z,12.92
2018-05-03T05:01:54.283Z,12.81
2018-05-03T05:04:20.079Z,13.22
2018-05-03T05:06:45.650Z,13.05
2018-05-03T05:09:12.009Z,12.98
2018-05-03T05:11:37.743Z,13.26
2018-05-03T05:14:03.894Z,13.08
2018-05-03T05:16:29.497Z,13.05
2018-05-03T05:18:55.350Z,13.06
2018-05-03T05:21:21.402Z,13.08
2018-05-03T05:23:46.989Z,13.08
2018-05-03T05:26:12.654Z,13.17
2018-05-03T05:28:38.818Z,13.34
2018-05-03T05:31:04.469Z,13.19
2018-05-03T05:33:31.111Z,13.12
2018-05-03T05:35:58.568Z,13.16
2018-05-03T05:38:24.612Z,13.12
2018-05-03T05:40:50.140Z,13.16
2018-05-03T05:43:15.783Z,13.18
2018-05-03T05:45:41.980Z,13.22
2018-05-03T05:48:08.298Z,13.26
2018-05-03T05:50:34.416Z,13.33
2018-05-03T05:53:00.720Z,13.28
2018-05-03T05:55:27.285Z,13.29
2018-05-03T05:57:52.897Z,13.33
2018-05-03T06:00:18.799Z,13.33
2018-05-03T06:02:44.475Z,13.34
2018-05-03T06:05:10.498Z,13.44
2018-05-03T06:07:36.054Z,13.43
2018-05-03T06:10:01.858Z,13.48
2018-05-03T06:12:27.587Z,13.44
2018-05-03T06:14:53.376Z,13.42
2018-05-03T06:17:18.989Z,13.51
2018-05-03T06:19:44.547Z,13.55
2018-05-03T06:22:10.395Z,13.59
2018-05-03T06:24:35.957Z,13.90
2018-05-03T06:27:01.522Z,13.74
2018-05-03T06:29:27.316Z,13.64
2018-05-03T06:31:52.937Z,13.71
2018-05-03T06:34:18.506Z,13.92
2018-05-03T06:36:44.474Z,13.71
2018-05-03T06:39:10.100Z,13.75
2018-05-03T06:41:36.754Z,13.65
2018-05-03T06:44:02.512Z,13.73
2018-05-03T06:46:28.086Z,13.74
2018-05-03T06:48:53.725Z,13.72
2018-05-03T06:51:19.555Z,13.75
2018-05-03T06:53:45.116Z,13.74
2018-05-03T06:56:10.839Z,13.75
2018-05-03T06:58:36.594Z,13.78
2018-05-03T07:01:02.171Z,13.79
2018-05-03T07:03:27.792Z,13.78
2018-05-03T07:05:53.539Z,13.84
2018-05-03T07:08:19.145Z,13.81
2018-05-03T07:10:44.718Z,13.83
2018-05-03T07:13:10.526Z,13.88
2018-05-03T07:15:36.237Z,13.88
2018-05-03T07:18:01.800Z,13.99
2018-05-03T07:20:27.515Z,14.03
2018-05-03T07:22:53.099Z,14.08
2018-05-03T07:25:18.756Z,14.18
2018-05-03T07:27:44.549Z,14.17
2018-05-03T07:30:10.126Z,14.22
2018-05-03T07:32:35.690Z,14.54
2018-05-03T07:35:01.407Z,14.45
2018-05-03T07:37:26.973Z,14.51
2018-05-03T07:39:52.549Z,14.30
2018-05-03T07:42:18.346Z,14.30
2018-05-03T07:44:43.974Z,14.75
2018-05-03T07:47:09.756Z,14.75
2018-05-03T07:49:35.440Z,14.76
2018-05-03T07:52:01.089Z,14.72
2018-05-03T07:54:26.677Z,14.74
2018-05-03T07:56:52.494Z,14.71
2018-05-03T07:59:18.090Z,14.88
2018-05-03T08:01:43.735Z,14.72
2018-05-03T08:04:09.930Z,14.39
2018-05-03T08:06:35.497Z,14.28
2018-05-03T08:09:01.069Z,14.18
2018-05-03T08:11:26.829Z,14.39
2018-05-03T08:13:52.401Z,14.37
2018-05-03T08:16:18.025Z,14.35
2018-05-03T08:18:43.811Z,14.47
2018-05-03T08:21:09.400Z,14.28
2018-05-03T08:23:34.993Z,14.60
2018-05-03T08:26:00.757Z,14.89
2018-05-03T08:28:26.530Z,14.66
2018-05-03T08:30:52.129Z,14.85
2018-05-03T08:33:17.857Z,14.90
2018-05-03T08:35:43.427Z,14.81
2018-05-03T08:38:08.995Z,15.17
2018-05-03T08:40:34.817Z,15.31
2018-05-03T08:43:00.399Z,15.43
2018-05-03T08:45:26.000Z,15.35
2018-05-03T08:47:51.743Z,15.56
2018-05-03T08:50:17.478Z,15.52
2018-05-03T08:52:43.064Z,15.56
2018-05-03T08:55:08.817Z,15.44
2018-05-03T08:57:34.381Z,15.70
2018-05-03T09:00:00.193Z,15.85
2018-05-03T09:02:26.007Z,15.97
2018-05-03T09:04:51.684Z,15.85
2018-05-03T09:07:17.307Z,15.98
2018-05-03T09:09:43.038Z,15.74
2018-05-03T09:12:08.709Z,15.51
2018-05-03T09:14:34.267Z,15.31
2018-05-03T09:16:59.997Z,15.45
2018-05-03T09:19:25.618Z,15.90
2018-05-03T09:21:51.274Z,15.90
2018-05-03T09:24:17.061Z,15.99
2018-05-03T09:26:42.620Z,15.73
2018-05-03T09:29:08.189Z,15.57
2018-05-03T09:31:33.927Z,15.62
2018-05-03T09:33:59.496Z,15.76
2018-05-03T09:36:25.117Z,15.82
2018-05-03T09:38:50.875Z,16.02
2018-05-03T09:41:16.467Z,16.12
2018-05-03T09:43:42.049Z,15.96
2018-05-03T09:46:08.210Z,15.50
2018-05-03T09:48:33.842Z,15.76
2018-05-03T09:50:59.424Z,15.40
2018-05-03T09:53:25.133Z,15.88
2018-05-03T09:55:50.836Z,15.76
2018-05-03T09:58:16.397Z,15.99
2018-05-03T10:00:41.966Z,16.12
2018-05-03T10:03:07.688Z,16.24
2018-05-03T10:05:33.267Z,16.51
2018-05-03T10:07:59.036Z,16.47
2018-05-03T10:10:25.035Z,16.27
2018-05-03T10:12:50.594Z,16.28
2018-05-03T10:15:16.154Z,16.60
2018-05-03T10:17:41.941Z,16.55
2018-05-03T10:20:07.589Z,16.86
2018-05-03T10:22:33.289Z,16.73
2018-05-03T10:24:59.265Z,16.86
2018-05-03T10:27:24.976Z,16.60
2018-05-03T10:29:50.559Z,16.63
2018-05-03T10:32:16.317Z,16.36
2018-05-03T10:34:41.952Z,16.76
2018-05-03T10:37:07.578Z,16.56
2018-05-03T10:39:34.456Z,16.25
2018-05-03T10:42:00.090Z,16.53
2018-05-03T10:44:25.703Z,16.94
2018-05-03T10:46:51.535Z,16.77
2018-05-03T10:49:17.090Z,17.04
2018-05-03T10:51:42.680Z,17.17
2018-05-03T10:54:08.395Z,17.23
2018-05-03T10:56:33.999Z,17.23
2018-05-03T10:58:59.731Z,17.49
2018-05-03T11:01:25.446Z,17.43
2018-05-03T11:03:51.192Z,17.40
2018-05-03T11:06:16.891Z,17.64
2018-05-03T11:08:42.709Z,17.51
2018-05-03T11:11:08.377Z,17.75
2018-05-03T11:13:33.933Z,17.32
2018-05-03T11:15:59.739Z,17.30
2018-05-03T11:18:25.598Z,17.67
2018-05-03T11:20:51.288Z,17.65
2018-05-03T11:23:17.002Z,17.70
2018-05-03T11:25:42.657Z,17.71
2018-05-03T11:28:08.215Z,17.74
2018-05-03T11:30:33.947Z,17.95
2018-05-03T11:32:59.505Z,17.62
2018-05-03T11:35:25.127Z,17.90
2018-05-03T11:37:50.981Z,18.17
2018-05-03T11:40:17.065Z,18.25
2018-05-03T11:42:42.785Z,18.32
2018-05-03T11:45:08.474Z,18.37
2018-05-03T11:47:34.073Z,18.70
2018-05-03T11:49:59.687Z,18.48
2018-05-03T11:52:25.390Z,18.36
2018-05-03T11:54:50.968Z,18.65
2018-05-03T11:57:16.724Z,18.94
2018-05-03T11:59:42.753Z,18.93
2018-05-03T12:02:08.509Z,18.45
2018-05-03T12:04:34.153Z,18.75
2018-05-03T12:06:59.963Z,18.48
2018-05-03T12:09:25.564Z,18.37
2018-05-03T12:11:51.280Z,18.77
2018-05-03T12:14:17.020Z,18.30
2018-05-03T12:16:42.658Z,18.73
2018-05-03T12:19:08.223Z,18.35
2018-05-03T12:21:34.309Z,18.72
2018-05-03T12:23:59.875Z,18.80
2018-05-03T12:26:25.621Z,19.28
2018-05-03T12:28:51.318Z,19.07
2018-05-03T12:31:19.043Z,19.14
